createdAt,value
2018-03-07T00:02:09.119Z,99155.45
2018-03-07T00:04:36.807Z,99156.33
2018-03-07T00:07:04.454Z,99166.44
2018-03-07T00:09:32.138Z,99165.66
2018-03-07T00:11:59.802Z,99162.68
2018-03-07T00:14:27.615Z,99167.12
2018-03-07T00:16:55.250Z,99166.62
2018-03-07T00:19:22.920Z,99164.31
2018-03-07T00:21:50.558Z,99162.84
2018-03-07T00:36:16.900Z,99166.38
2018-03-07T00:38:44.544Z,99168.84
2018-03-07T00:41:12.221Z,99170.78
2018-03-07T00:43:39.871Z,99179.67
2018-03-07T00:46:07.544Z,99175.61
2018-03-07T00:48:35.182Z,99178.63
2018-03-07T00:51:02.856Z,99175.48
2018-03-07T00:53:30.487Z,99173.79
2018-03-07T00:55:58.178Z,99169.52
2018-03-07T00:58:25.863Z,99159.86
2018-03-07T01:00:53.562Z,99161.38
2018-03-07T01:03:21.289Z,99164.77
2018-03-07T01:05:49.104Z,99162.87
2018-03-07T01:08:16.862Z,99179.13
2018-03-07T01:10:44.585Z,99174.81
2018-03-07T01:13:12.223Z,99178.50
2018-03-07T01:15:39.879Z,99173.35
2018-03-07T01:18:07.564Z,99179.64
2018-03-07T01:20:35.243Z,99177.71
2018-03-07T01:23:02.939Z,99168.67
2018-03-07T01:25:30.613Z,99176.57
2018-03-07T01:27:58.292Z,99169.28
2018-03-07T01:30:25.997Z,99166.97
2018-03-07T01:32:53.683Z,99155.84
2018-03-07T01:35:21.485Z,99150.60
2018-03-07T01:37:49.200Z,99154.87
2018-03-07T01:40:16.854Z,99150.08
2018-03-07T01:42:44.562Z,99149.34
2018-03-07T01:45:12.335Z,99155.20
2018-03-07T01:47:40.146Z,99147.84
2018-03-07T01:50:07.791Z,99148.58
2018-03-07T01:52:35.485Z,99155.92
2018-03-07T01:55:03.146Z,99153.44
2018-03-07T01:57:30.843Z,99160.11
2018-03-07T01:59:58.487Z,99159.64
2018-03-07T02:02:26.380Z,99151.61
2018-03-07T02:04:54.041Z,99155.45
2018-03-07T02:07:21.906Z,99155.45
2018-03-07T02:09:49.555Z,99146.66
2018-03-07T02:12:17.261Z,99155.66
2018-03-07T02:14:45.005Z,99159.52
2018-03-07T02:17:12.656Z,99162.19
2018-03-07T02:19:40.423Z,99160.75
2018-03-07T02:22:08.078Z,99162.80
2018-03-07T02:24:35.771Z,99169.48
2018-03-07T02:27:03.410Z,99169.91
2018-03-07T02:29:31.106Z,99167.84
2018-03-07T02:31:58.762Z,99170.13
2018-03-07T02:34:26.454Z,99176.69
2018-03-07T02:36:54.109Z,99173.93
2018-03-07T02:39:21.870Z,99175.98
2018-03-07T02:41:49.554Z,99181.66
2018-03-07T02:44:17.248Z,99181.66
2018-03-07T02:46:44.896Z,99182.80
2018-03-07T02:49:12.586Z,99181.84
2018-03-07T02:51:40.229Z,99179.79
2018-03-07T02:54:07.930Z,99185.30
2018-03-07T02:56:35.576Z,99183.69
2018-03-07T02:59:04.369Z,99187.81
2018-03-07T03:01:32.115Z,99202.54
2018-03-07T03:03:59.806Z,99200.05
2018-03-07T03:06:27.451Z,99212.91
2018-03-07T03:08:55.133Z,99214.05
2018-03-07T03:11:22.788Z,99213.11
2018-03-07T03:13:50.482Z,99222.00
2018-03-07T03:16:18.154Z,99226.34
2018-03-07T03:18:45.844Z,99239.19
2018-03-07T03:21:13.484Z,99232.57
2018-03-07T03:23:41.178Z,99235.20
2018-03-07T03:26:08.826Z,99235.82
2018-03-07T03:28:36.518Z,99243.84
2018-03-07T03:31:04.222Z,99242.67
2018-03-07T03:33:31.856Z,99231.28
2018-03-07T03:35:59.529Z,99243.98
2018-03-07T03:38:27.214Z,99241.94
2018-03-07T03:40:54.847Z,99250.87
2018-03-07T03:43:22.486Z,99249.94
2018-03-07T03:45:50.202Z,99251.69
2018-03-07T03:48:17.971Z,99256.89
2018-03-07T03:50:45.608Z,99260.73
2018-03-07T03:53:13.288Z,99252.02
2018-03-07T03:55:40.993Z,99261.85
2018-03-07T03:58:08.677Z,99256.81
2018-03-07T04:00:36.409Z,99259.21
2018-03-07T04:03:04.055Z,99262.78
2018-03-07T04:05:31.735Z,99265.89
2018-03-07T04:07:59.414Z,99269.78
2018-03-07T04:10:27.110Z,99269.55
2018-03-07T04:12:54.803Z,99266.83
2018-03-07T04:15:22.647Z,99265.08
2018-03-07T04:17:50.293Z,99269.23
2018-03-07T04:20:18.043Z,99266.80
2018-03-07T04:22:45.682Z,99267.45
2018-03-07T04:25:13.440Z,99263.73
2018-03-07T04:27:41.113Z,99268.73
2018-03-07T04:30:08.784Z,99266.89
2018-03-07T04:32:36.502Z,99271.28
2018-03-07T04:35:04.173Z,99269.09
2018-03-07T04:37:31.861Z,99268.17
2018-03-07T04:39:59.550Z,99268.55
2018-03-07T04:42:27.284Z,99261.09
2018-03-07T04:44:54.950Z,99258.98
2018-03-07T04:47:23.586Z,99257.69
2018-03-07T04:49:51.280Z,99262.93
2018-03-07T04:52:18.999Z,99262.61
2018-03-07T04:54:46.698Z,99268.47
2018-03-07T04:57:14.363Z,99267.45
2018-03-07T04:59:42.049Z,99267.63
2018-03-07T05:02:09.710Z,99270.88
2018-03-07T05:04:37.389Z,99266.81
2018-03-07T05:07:05.056Z,99266.99
2018-03-07T05:09:32.762Z,99269.30
2018-03-07T05:12:00.404Z,99275.20
2018-03-07T05:14:28.088Z,99279.62
2018-03-07T05:16:55.755Z,99280.67
2018-03-07T05:19:23.483Z,99282.47
2018-03-07T05:21:51.208Z,99285.55
2018-03-07T05:24:18.862Z,99287.80
2018-03-07T05:26:46.634Z,99286.42
2018-03-07T05:29:14.297Z,99294.13
2018-03-07T05:31:41.995Z,99291.81
2018-03-07T05:34:09.665Z,99296.60
2018-03-07T05:36:37.369Z,99301.89
2018-03-07T05:39:05.059Z,99302.99
2018-03-07T05:41:32.782Z,99309.95
2018-03-07T05:44:00.414Z,99307.98
2018-03-07T05:46:28.117Z,99315.81
2018-03-07T05:48:55.759Z,99322.73
2018-03-07T05:51:23.483Z,99324.48
2018-03-07T05:53:51.169Z,99331.39
2018-03-07T05:56:18.802Z,99339.03
2018-03-07T05:58:47.411Z,99340.73
2018-03-07T06:01:15.102Z,99345.77
2018-03-07T06:03:42.826Z,99349.08
2018-03-07T06:06:14.620Z,99355.21
2018-03-07T06:08:43.358Z,99354.02
2018-03-07T06:11:11.050Z,99366.59
2018-03-07T06:13:38.677Z,99366.16
2018-03-07T06:16:06.369Z,99366.95
2018-03-07T06:18:33.995Z,99375.37
2018-03-07T06:21:01.694Z,99374.09
2018-03-07T06:23:29.349Z,99375.42
2018-03-07T06:25:57.037Z,99379.91
2018-03-07T06:28:24.722Z,99382.48
2018-03-07T06:30:52.429Z,99388.77
2018-03-07T06:33:20.066Z,99394.67
2018-03-07T06:35:47.769Z,99390.97
2018-03-07T06:38:15.432Z,99393.48
2018-03-07T06:40:43.134Z,99395.13
2018-03-07T06:43:10.798Z,99396.51
2018-03-07T06:45:38.507Z,99409.98
2018-03-07T06:48:06.142Z,99416.72
2018-03-07T06:50:33.838Z,99420.66
2018-03-07T06:53:01.543Z,99418.31
2018-03-07T06:55:29.189Z,99420.44
2018-03-07T06:57:56.908Z,99421.77
2018-03-07T07:00:24.596Z,99421.17
2018-03-07T07:02:52.290Z,99426.34
2018-03-07T07:05:20.022Z,99425.47
2018-03-07T07:07:47.708Z,99426.48
2018-03-07T07:10:15.363Z,99434.65
2018-03-07T07:12:43.075Z,99435.70
2018-03-07T07:15:10.703Z,99442.66
2018-03-07T07:17:38.394Z,99432.27
2018-03-07T07:20:06.632Z,99441.58
2018-03-07T07:22:34.588Z,99435.06
2018-03-07T07:25:02.463Z,99426.03
2018-03-07T07:27:30.444Z,99421.67
2018-03-07T07:29:58.416Z,99431.20
2018-03-07T07:32:26.417Z,99431.30
2018-03-07T07:34:54.467Z,99437.50
2018-03-07T07:37:22.342Z,99437.41
2018-03-07T07:39:50.276Z,99439.05
2018-03-07T07:42:18.167Z,99444.69
2018-03-07T07:44:46.103Z,99443.80
2018-03-07T07:47:15.140Z,99449.55
2018-03-07T07:49:43.096Z,99443.91
2018-03-07T07:52:10.867Z,99449.09
2018-03-07T07:54:38.642Z,99448.39
2018-03-07T07:57:06.431Z,99445.68
2018-03-07T07:59:34.327Z,99442.23
2018-03-07T08:02:02.264Z,99439.72
2018-03-07T08:04:29.928Z,99441.36
2018-03-07T08:06:57.669Z,99436.50
2018-03-07T08:09:25.379Z,99440.75
2018-03-07T08:11:53.123Z,99433.30
2018-03-07T08:14:20.803Z,99438.56
2018-03-07T08:16:48.531Z,99435.49
2018-03-07T08:19:16.193Z,99433.30
2018-03-07T08:21:43.867Z,99430.78
2018-03-07T08:24:11.589Z,99435.09
2018-03-07T08:26:39.359Z,99433.86
2018-03-07T08:29:07.043Z,99433.59
2018-03-07T08:31:34.743Z,99439.17
2018-03-07T08:34:02.534Z,99445.28
2018-03-07T08:36:30.250Z,99456.66
2018-03-07T08:38:57.958Z,99454.73
2018-03-07T08:41:25.876Z,99453.26
2018-03-07T08:43:53.581Z,99460.83
2018-03-07T08:46:21.305Z,99459.04
2018-03-07T08:48:49.101Z,99467.80
2018-03-07T08:51:16.790Z,99465.63
2018-03-07T08:53:44.511Z,99462.38
2018-03-07T08:56:12.217Z,99462.52
2018-03-07T08:58:39.878Z,99459.83
2018-03-07T09:01:07.575Z,99456.78
2018-03-07T09:03:35.254Z,99449.85
2018-03-07T09:06:02.959Z,99445.17
2018-03-07T09:08:30.629Z,99444.25
2018-03-07T09:10:58.634Z,99438.87
2018-03-07T09:13:26.304Z,99439.11
2018-03-07T09:15:53.984Z,99441.90
2018-03-07T09:18:22.402Z,99436.86
2018-03-07T09:20:50.162Z,99435.06
2018-03-07T09:23:17.855Z,99438.09
2018-03-07T09:25:45.622Z,99437.27
2018-03-07T09:28:13.466Z,99433.45
2018-03-07T09:30:41.159Z,99433.86
2018-03-07T09:33:08.882Z,99432.74
2018-03-07T09:35:36.526Z,99439.66
2018-03-07T09:38:04.264Z,99430.44
2018-03-07T09:40:31.964Z,99434.86
2018-03-07T09:42:59.714Z,99439.45
2018-03-07T09:45:27.382Z,99428.44
2018-03-07T09:47:55.109Z,99433.73
2018-03-07T09:50:22.786Z,99429.92
2018-03-07T09:52:50.469Z,99429.03
2018-03-07T09:55:18.186Z,99430.28
2018-03-07T09:57:46.043Z,99424.16
2018-03-07T10:00:13.727Z,99419.84
2018-03-07T10:02:41.401Z,99407.86
2018-03-07T10:05:09.107Z,99408.63
2018-03-07T10:07:36.826Z,99418.23
2018-03-07T10:10:04.650Z,99413.17
2018-03-07T10:12:32.366Z,99411.36
2018-03-07T10:15:00.165Z,99413.38
2018-03-07T10:17:27.944Z,99408.78
2018-03-07T10:19:55.660Z,99403.92
2018-03-07T10:22:23.355Z,99404.70
2018-03-07T10:24:51.067Z,99402.59
2018-03-07T10:27:18.758Z,99406.67
2018-03-07T10:29:46.555Z,99405.82
2018-03-07T10:32:14.354Z,99403.51
2018-03-07T10:34:42.068Z,99403.36
2018-03-07T10:37:09.914Z,99398.64
2018-03-07T10:39:37.704Z,99388.64
2018-03-07T10:42:05.486Z,99392.05
2018-03-07T10:44:33.274Z,99396.77
2018-03-07T10:47:01.014Z,99393.86
2018-03-07T10:49:28.725Z,99400.25
2018-03-07T10:51:56.381Z,99399.45
2018-03-07T10:54:24.098Z,99399.37
2018-03-07T10:56:51.795Z,99402.16
2018-03-07T10:59:19.509Z,99410.77
2018-03-07T11:01:47.165Z,99410.28
2018-03-07T11:04:14.839Z,99411.12
2018-03-07T11:06:42.482Z,99412.23
2018-03-07T11:09:10.219Z,99412.17
2018-03-07T11:11:38.045Z,99417.28
2018-03-07T11:14:05.766Z,99413.48
2018-03-07T11:16:33.477Z,99409.61
2018-03-07T11:19:01.297Z,99403.98
2018-03-07T11:21:29.106Z,99399.84
2018-03-07T11:23:56.900Z,99404.23
2018-03-07T11:26:24.642Z,99405.41
2018-03-07T11:28:52.487Z,99395.41
2018-03-07T11:31:20.389Z,99394.95
2018-03-07T11:33:48.241Z,99402.92
2018-03-07T11:36:15.898Z,99403.30
2018-03-07T11:38:43.711Z,99404.65
2018-03-07T11:41:11.470Z,99403.88
2018-03-07T11:43:39.203Z,99394.38
2018-03-07T11:46:06.939Z,99398.91
2018-03-07T11:48:34.754Z,99403.20
2018-03-07T11:51:02.410Z,99405.26
2018-03-07T11:53:30.137Z,99403.52
2018-03-07T11:55:57.841Z,99395.38
2018-03-07T11:58:25.575Z,99398.70
2018-03-07T12:00:53.338Z,99407.34
2018-03-07T12:03:21.068Z,99406.83
2018-03-07T12:05:48.726Z,99403.20
2018-03-07T12:08:17.442Z,99416.84
2018-03-07T12:10:45.332Z,99415.67
2018-03-07T12:13:13.242Z,99411.66
2018-03-07T12:15:40.967Z,99412.42
2018-03-07T12:18:08.657Z,99418.37
2018-03-07T12:20:36.450Z,99418.58
2018-03-07T12:23:04.131Z,99416.31
2018-03-07T12:25:31.935Z,99413.36
2018-03-07T12:27:59.610Z,99419.05
2018-03-07T12:30:27.338Z,99417.44
2018-03-07T12:32:55.139Z,99422.23
2018-03-07T12:35:22.994Z,99416.76
2018-03-07T12:37:50.827Z,99419.95
2018-03-07T12:40:18.548Z,99425.80
2018-03-07T12:42:46.435Z,99423.70
2018-03-07T12:45:14.107Z,99431.98
2018-03-07T12:47:42.025Z,99436.87
2018-03-07T12:50:09.670Z,99433.59
2018-03-07T12:52:37.391Z,99438.42
2018-03-07T12:55:05.258Z,99438.78
2018-03-07T12:57:33.032Z,99440.47
2018-03-07T13:00:00.711Z,99434.87
2018-03-07T13:02:28.418Z,99438.89
2018-03-07T13:04:56.104Z,99442.64
2018-03-07T13:07:23.821Z,99445.64
2018-03-07T13:09:51.659Z,99449.28
2018-03-07T13:12:19.627Z,99449.95
2018-03-07T13:14:47.428Z,99455.70
2018-03-07T13:17:15.120Z,99462.53
2018-03-07T13:19:42.899Z,99457.80
2018-03-07T13:22:10.516Z,99457.98
2018-03-07T13:24:38.388Z,99453.52
2018-03-07T13:27:06.228Z,99458.86
2018-03-07T13:29:33.933Z,99459.80
2018-03-07T13:32:01.741Z,99459.84
2018-03-07T13:34:29.654Z,99457.69
2018-03-07T13:36:57.438Z,99463.56
2018-03-07T13:39:25.167Z,99464.72
2018-03-07T13:41:52.815Z,99470.94
2018-03-07T13:44:20.530Z,99484.64
2018-03-07T13:46:48.226Z,99479.49
2018-03-07T13:49:16.087Z,99489.31
2018-03-07T13:51:43.803Z,99487.23
2018-03-07T13:54:11.650Z,99490.00
2018-03-07T13:56:39.492Z,99497.53
2018-03-07T13:59:07.160Z,99511.86
2018-03-07T14:01:34.860Z,99496.16
2018-03-07T14:04:02.511Z,99501.62
2018-03-07T14:06:30.300Z,99501.36
2018-03-07T14:08:57.964Z,99504.71
2018-03-07T14:11:25.762Z,99496.84
2018-03-07T14:13:53.418Z,99496.93
2018-03-07T14:16:21.134Z,99498.70
2018-03-07T14:18:48.821Z,99499.94
2018-03-07T14:21:16.627Z,99497.28
2018-03-07T14:23:44.458Z,99502.06
2018-03-07T14:26:12.266Z,99506.77
2018-03-07T14:28:40.156Z,99505.86
2018-03-07T14:31:07.949Z,99502.69
2018-03-07T14:33:35.722Z,99507.47
2018-03-07T14:36:03.571Z,99511.87
2018-03-07T14:38:31.407Z,99499.62
2018-03-07T14:40:59.190Z,99512.17
2018-03-07T14:43:26.868Z,99513.52
2018-03-07T14:45:54.686Z,99511.77
2018-03-07T14:48:22.499Z,99507.98
2018-03-07T14:50:50.322Z,99502.50
2018-03-07T14:53:18.074Z,99506.72
2018-03-07T14:55:45.902Z,99496.11
2018-03-07T14:58:13.575Z,99490.71
2018-03-07T15:00:41.322Z,99502.27
2018-03-07T15:03:09.040Z,99503.09
2018-03-07T15:05:36.829Z,99498.55
2018-03-07T15:08:04.536Z,99494.20
2018-03-07T15:10:32.231Z,99497.09
2018-03-07T15:12:59.987Z,99494.89
2018-03-07T15:15:27.702Z,99497.45
2018-03-07T15:17:55.391Z,99501.36
2018-03-07T15:20:23.077Z,99506.64
2018-03-07T15:22:51.973Z,99511.19
2018-03-07T15:25:19.656Z,99517.70
2018-03-07T15:27:47.362Z,99514.39
2018-03-07T15:30:15.042Z,99519.16
2018-03-07T15:32:42.805Z,99523.34
2018-03-07T15:35:10.492Z,99531.04
2018-03-07T15:37:38.241Z,99503.34
2018-03-07T15:40:06.058Z,99494.94
2018-03-07T15:42:33.733Z,99506.03
2018-03-07T15:45:01.490Z,99525.25
2018-03-07T15:47:29.148Z,99527.83
2018-03-07T15:49:56.870Z,99538.73
2018-03-07T15:52:24.555Z,99541.84
2018-03-07T15:54:52.322Z,99550.14
2018-03-07T15:57:20.059Z,99550.24
2018-03-07T15:59:47.783Z,99561.52
2018-03-07T16:02:15.495Z,99567.13
2018-03-07T16:04:43.149Z,99567.93
2018-03-07T16:07:10.903Z,99570.12
2018-03-07T16:09:38.623Z,99569.63
2018-03-07T16:12:06.374Z,99573.44
2018-03-07T16:14:34.092Z,99578.12
2018-03-07T16:17:01.852Z,99577.52
2018-03-07T16:19:29.482Z,99589.98
2018-03-07T16:21:57.318Z,99590.25
2018-03-07T16:24:25.076Z,99603.56
2018-03-07T16:26:52.883Z,99600.03
2018-03-07T16:29:20.646Z,99609.25
2018-03-07T16:31:48.378Z,99613.27
2018-03-07T16:34:16.202Z,99616.76
2018-03-07T16:36:43.894Z,99623.22
2018-03-07T16:39:11.658Z,99611.89
2018-03-07T16:41:39.343Z,99634.06
2018-03-07T16:44:07.182Z,99649.98
2018-03-07T16:46:34.938Z,99661.81
2018-03-07T16:49:02.831Z,99673.21
2018-03-07T16:51:30.537Z,99698.56
2018-03-07T16:53:58.216Z,99717.59
2018-03-07T16:56:25.947Z,99723.33
2018-03-07T16:58:53.651Z,99982.87
2018-03-07T17:01:21.504Z,99797.86
2018-03-07T17:03:49.238Z,99708.41
2018-03-07T17:06:16.898Z,99174.78
2018-03-07T17:08:44.595Z,99181.98
2018-03-07T17:11:12.374Z,98145.61
2018-03-07T17:13:40.071Z,97710.62
2018-03-07T17:16:07.722Z,97587.67
2018-03-07T17:18:35.425Z,97383.36
2018-03-07T17:21:03.846Z,97291.93
2018-03-07T17:23:31.525Z,97405.02
2018-03-07T17:25:59.164Z,97917.95
2018-03-07T17:28:26.898Z,99008.48
2018-03-07T17:30:54.552Z,98468.41
2018-03-07T17:33:22.218Z,99220.76
2018-03-07T17:35:49.859Z,100031.50
2018-03-07T17:38:17.545Z,100588.40
2018-03-07T17:40:45.188Z,100884.02
2018-03-07T17:43:12.902Z,100922.83
2018-03-07T17:45:40.549Z,100758.55
2018-03-07T17:48:08.230Z,100619.20
2018-03-07T17:50:35.902Z,100606.57
2018-03-07T17:53:03.600Z,100572.84
2018-03-07T17:55:31.281Z,100518.64
2018-03-07T17:57:58.965Z,100287.10
2018-03-07T18:00:26.843Z,100329.23
2018-03-07T18:02:54.848Z,100382.75
2018-03-07T18:05:22.673Z,100486.17
2018-03-07T18:07:50.610Z,100480.42
2018-03-07T18:10:18.519Z,100553.45
2018-03-07T18:12:46.457Z,100602.28
2018-03-07T18:15:14.140Z,100567.76
2018-03-07T18:17:41.911Z,100612.06
2018-03-07T18:20:09.576Z,100614.28
2018-03-07T18:22:37.301Z,100599.81
2018-03-07T18:25:05.128Z,100606.56
2018-03-07T18:27:32.934Z,100575.89
2018-03-07T18:30:00.691Z,100613.58
2018-03-07T18:32:28.506Z,100587.56
2018-03-07T18:34:56.302Z,100584.56
2018-03-07T18:37:24.088Z,100560.34
2018-03-07T18:39:51.919Z,100546.58
2018-03-07T18:42:19.610Z,100548.63
2018-03-07T18:44:47.427Z,100555.37
2018-03-07T18:47:15.172Z,100555.66
2018-03-07T18:49:43.001Z,100525.23
2018-03-07T18:52:10.748Z,100512.02
2018-03-07T18:54:38.561Z,100501.70
2018-03-07T18:57:06.314Z,100511.22
2018-03-07T18:59:34.139Z,100540.23
2018-03-07T19:02:01.874Z,100493.03
2018-03-07T19:04:29.707Z,100536.81
2018-03-07T19:06:57.463Z,100571.89
2018-03-07T19:09:26.210Z,100546.41
2018-03-07T19:11:53.875Z,100569.97
2018-03-07T19:14:21.586Z,100603.54
2018-03-07T19:16:49.491Z,100614.80
2018-03-07T19:19:17.327Z,100636.57
2018-03-07T19:21:45.097Z,100628.02
2018-03-07T19:24:12.946Z,100592.23
2018-03-07T19:26:40.726Z,100576.67
2018-03-07T19:29:08.598Z,100572.14
2018-03-07T19:31:36.367Z,100565.30
2018-03-07T19:34:04.154Z,100566.80
2018-03-07T19:36:31.902Z,100508.72
2018-03-07T19:38:59.720Z,100518.92
2018-03-07T19:41:27.470Z,100568.30
2018-03-07T19:43:55.296Z,100613.30
2018-03-07T19:46:23.030Z,100588.81
2018-03-07T19:48:50.873Z,100328.48
2018-03-07T19:51:18.710Z,100387.81
2018-03-07T19:53:46.549Z,100457.02
2018-03-07T19:56:14.271Z,100589.91
2018-03-07T19:58:42.097Z,100635.19
2018-03-07T20:01:09.843Z,100643.73
2018-03-07T20:03:37.665Z,100627.90
2018-03-07T20:06:05.440Z,100633.81
2018-03-07T20:08:33.227Z,100615.38
2018-03-07T20:11:01.052Z,100602.70
2018-03-07T20:13:28.887Z,100354.42
2018-03-07T20:15:56.724Z,100385.94
2018-03-07T20:18:24.513Z,100445.15
2018-03-07T20:20:52.352Z,100561.70
2018-03-07T20:23:20.086Z,100532.80
2018-03-07T20:25:47.960Z,100517.09
2018-03-07T20:28:15.762Z,100523.83
2018-03-07T20:30:43.660Z,100531.43
2018-03-07T20:33:12.319Z,100510.63
2018-03-07T20:35:40.113Z,100512.69
2018-03-07T20:38:07.787Z,100497.67
2018-03-07T20:40:35.478Z,100499.47
2018-03-07T20:43:03.174Z,100489.70
2018-03-07T20:45:30.851Z,100478.53
2018-03-07T20:47:58.500Z,100468.48
2018-03-07T20:50:26.227Z,100454.59
2018-03-07T20:52:53.927Z,100459.84
2018-03-07T20:55:21.663Z,100444.70
2018-03-07T20:57:49.341Z,100445.25
2018-03-07T21:00:17.048Z,100444.84
2018-03-07T21:02:44.718Z,100447.44
2018-03-07T21:05:12.438Z,100446.45
2018-03-07T21:07:40.106Z,100458.06
2018-03-07T21:10:07.838Z,100457.79
2018-03-07T21:12:35.539Z,100463.69
2018-03-07T21:15:03.274Z,100472.78
2018-03-07T21:17:30.985Z,100480.63
2018-03-07T21:19:58.688Z,100478.94
2018-03-07T21:22:26.324Z,100479.48
2018-03-07T21:24:54.044Z,100460.20
2018-03-07T21:27:21.735Z,100448.95
2018-03-07T21:29:49.491Z,100436.69
2018-03-07T21:32:17.184Z,100429.27
2018-03-07T21:34:44.816Z,100420.59
2018-03-07T21:37:12.522Z,100404.95
2018-03-07T21:39:40.240Z,100412.77
2018-03-07T21:42:08.148Z,100423.05
2018-03-07T21:44:35.869Z,100467.41
2018-03-07T21:47:03.627Z,100510.48
2018-03-07T21:49:31.328Z,100525.52
2018-03-07T21:51:59.055Z,100314.95
2018-03-07T21:54:26.795Z,100308.48
2018-03-07T21:56:54.480Z,100298.55
2018-03-07T21:59:22.116Z,100305.55
2018-03-07T22:01:49.860Z,100382.20
2018-03-07T22:04:17.539Z,100463.41
2018-03-07T22:06:45.322Z,100483.92
2018-03-07T22:09:13.335Z,100480.31
2018-03-07T22:11:41.055Z,100492.42
2018-03-07T22:14:08.763Z,100488.97
2018-03-07T22:16:36.492Z,100483.47
2018-03-07T22:19:04.178Z,100448.77
2018-03-07T22:21:31.867Z,100441.08
2018-03-07T22:23:59.510Z,100441.08
2018-03-07T22:26:27.258Z,100430.33
2018-03-07T22:28:54.954Z,100426.08
2018-03-07T22:31:22.842Z,100430.09
2018-03-07T22:33:51.346Z,100427.16
2018-03-07T22:36:19.075Z,100429.14
2018-03-07T22:38:46.811Z,100430.76
2018-03-07T22:41:14.543Z,100428.70
2018-03-07T22:43:42.239Z,100424.17
2018-03-07T22:46:09.941Z,100420.70
2018-03-07T22:48:37.662Z,100406.81
2018-03-07T22:51:05.369Z,100409.84
2018-03-07T22:53:33.030Z,100399.26
2018-03-07T22:56:00.722Z,100338.96
2018-03-07T22:58:28.419Z,100334.25
2018-03-07T23:00:56.139Z,100335.48
2018-03-07T23:03:23.850Z,100346.11
2018-03-07T23:05:51.542Z,100337.90
2018-03-07T23:08:19.355Z,100351.81
2018-03-07T23:10:47.039Z,100351.59
2018-03-07T23:13:14.823Z,100366.98
2018-03-07T23:15:42.634Z,100373.61
2018-03-07T23:18:10.851Z,100384.33
2018-03-07T23:20:38.548Z,100393.55
2018-03-07T23:23:06.222Z,100404.30
2018-03-07T23:25:33.895Z,100425.75
2018-03-07T23:28:01.539Z,100447.63
2018-03-07T23:30:29.228Z,100489.74
2018-03-07T23:32:56.888Z,100872.95
2018-03-07T23:35:24.650Z,100513.55
2018-03-07T23:37:52.318Z,100442.12
2018-03-07T23:40:20.035Z,100416.94
2018-03-07T23:42:47.690Z,100401.12
2018-03-07T23:45:15.442Z,100395.21
2018-03-07T23:47:43.173Z,100382.66
2018-03-07T23:50:10.857Z,100378.27
2018-03-07T23:52:38.625Z,100368.34
2018-03-07T23:55:06.325Z,100364.22
2018-03-07T23:57:34.265Z,100360.64
